createdAt,value
2023-04-18T00:00:26.038Z,0
2023-04-18T00:01:59.000Z,0
2023-04-18T00:03:15.435Z,0
2023-04-18T00:04:31.633Z,0
2023-04-18T00:05:29.827Z,0
2023-04-18T00:07:04.026Z,0
2023-04-18T00:08:02.213Z,0
2023-04-18T00:09:35.000Z,0
2023-04-18T00:10:51.000Z,0
2023-04-18T00:12:07.816Z,0
2023-04-18T00:13:49.000Z,0
2023-04-18T00:14:39.227Z,0
2023-04-18T00:15:54.438Z,0
2023-04-18T00:17:10.000Z,0
2023-04-18T00:18:26.823Z,0
2023-04-18T00:19:43.029Z,0
2023-04-18T00:20:41.213Z,0
2023-04-18T00:22:41.000Z,0
2023-04-18T00:23:31.000Z,0
2023-04-18T00:24:47.791Z,0
2023-04-18T00:25:45.985Z,0
2023-04-18T00:27:20.000Z,0
2023-04-18T00:28:36.371Z,0
2023-04-18T00:29:52.572Z,0
2023-04-18T00:31:08.763Z,0
2023-04-18T00:32:23.000Z,0
2023-04-18T00:33:40.000Z,0
2023-04-18T00:34:38.352Z,0
2023-04-18T00:36:12.000Z,0
2023-04-18T00:37:28.748Z,0
2023-04-18T00:38:26.931Z,0
2023-04-18T00:40:01.124Z,0
2023-04-18T00:40:59.317Z,0
2023-04-18T00:42:32.547Z,0
2023-04-18T00:43:48.728Z,0
2023-04-18T00:45:04.000Z,0
2023-04-18T00:46:21.111Z,0
2023-04-18T00:47:36.000Z,0
2023-04-18T00:48:52.000Z,0
2023-04-18T00:50:08.000Z,0
2023-04-18T00:51:06.913Z,0
2023-04-18T00:53:06.000Z,0
2023-04-18T00:53:38.315Z,0
2023-04-18T00:55:12.000Z,0
2023-04-18T00:56:10.702Z,0
2023-04-18T00:57:44.896Z,0
2023-04-18T00:59:01.088Z,0
2023-04-18T01:00:17.281Z,0
2023-04-18T01:01:33.000Z,0
2023-04-18T01:02:49.667Z,0
2023-04-18T01:04:05.000Z,0
2023-04-18T01:05:22.061Z,0
2023-04-18T01:06:20.247Z,0
2023-04-18T01:07:54.000Z,0
2023-04-18T01:08:52.633Z,0
2023-04-18T01:10:26.000Z,0
2023-04-18T01:11:43.015Z,0
2023-04-18T01:12:41.211Z,0
2023-04-18T01:14:15.404Z,0
2023-04-18T01:15:31.597Z,0
2023-04-18T01:16:47.788Z,0
2023-04-18T01:18:03.984Z,0
2023-04-18T01:19:02.177Z,0
2023-04-18T01:20:35.000Z,0
2023-04-18T01:21:33.589Z,0
2023-04-18T01:23:07.778Z,0
2023-04-18T01:24:23.000Z,0
2023-04-18T01:25:40.168Z,0
2023-04-18T01:26:56.000Z,0
2023-04-18T01:28:12.000Z,0
2023-04-18T01:29:54.000Z,0
2023-04-18T01:30:26.939Z,0
2023-04-18T01:32:01.135Z,0
2023-04-18T01:33:17.000Z,0
2023-04-18T01:34:33.000Z,0
2023-04-18T01:35:49.832Z,0
2023-04-18T01:37:06.000Z,0
2023-04-18T01:38:22.219Z,0
2023-04-18T01:39:38.000Z,0
2023-04-18T01:40:54.000Z,0
2023-04-18T01:42:10.000Z,0
2023-04-18T01:43:08.991Z,0
2023-04-18T01:44:25.184Z,0
2023-04-18T01:45:59.379Z,0
2023-04-18T01:47:15.570Z,0
2023-04-18T01:48:30.790Z,0
2023-04-18T01:49:28.983Z,0
2023-04-18T01:51:03.181Z,0
2023-04-18T01:52:18.395Z,0
2023-04-18T01:54:00.000Z,0
2023-04-18T01:54:32.781Z,0
2023-04-18T01:56:06.000Z,0
2023-04-18T01:57:22.192Z,0
2023-04-18T01:58:38.509Z,0
2023-04-18T01:59:36.701Z,0
2023-04-18T02:01:10.000Z,0
2023-04-18T02:02:09.087Z,0
2023-04-18T02:03:43.000Z,0
2023-04-18T02:04:59.474Z,0
2023-04-18T02:06:15.668Z,0
2023-04-18T02:07:58.000Z,0
2023-04-18T02:08:48.059Z,0
2023-04-18T02:09:46.246Z,0
2023-04-18T02:11:20.000Z,0
2023-04-18T02:12:18.632Z,0
2023-04-18T02:13:52.834Z,0
2023-04-18T02:14:51.019Z,0
2023-04-18T02:16:25.216Z,0
2023-04-18T02:17:40.000Z,0
2023-04-18T02:18:56.000Z,0
2023-04-18T02:19:54.808Z,0
2023-04-18T02:21:29.000Z,0
2023-04-18T02:22:27.194Z,0
2023-04-18T02:24:01.528Z,0
2023-04-18T02:25:17.717Z,0
2023-04-18T02:26:32.000Z,0
2023-04-18T02:27:31.134Z,0
2023-04-18T02:28:46.354Z,0
2023-04-18T02:30:20.548Z,0
2023-04-18T02:31:36.000Z,0
2023-04-18T02:32:34.934Z,0
2023-04-18T02:34:09.000Z,0
2023-04-18T02:35:25.329Z,0
2023-04-18T02:36:40.543Z,0
2023-04-18T02:37:56.725Z,0
2023-04-18T02:39:12.917Z,0
2023-04-18T02:40:11.108Z,0
2023-04-18T02:41:45.301Z,0
2023-04-18T02:43:01.000Z,0
2023-04-18T02:44:17.687Z,0
2023-04-18T02:45:15.880Z,0
2023-04-18T02:46:32.073Z,0
2023-04-18T02:48:06.000Z,0
2023-04-18T02:49:22.000Z,0
2023-04-18T02:50:38.000Z,0
2023-04-18T02:51:36.846Z,0
2023-04-18T02:52:53.039Z,0
2023-04-18T02:54:27.238Z,0
2023-04-18T02:55:43.425Z,0
2023-04-18T02:56:59.628Z,0
2023-04-18T02:57:57.811Z,0
2023-04-18T02:59:31.000Z,0
2023-04-18T03:00:47.222Z,0
2023-04-18T03:02:02.000Z,0
2023-04-18T03:03:18.000Z,0
2023-04-18T03:04:34.000Z,0
2023-04-18T03:05:51.000Z,0
2023-04-18T03:07:33.000Z,0
2023-04-18T03:08:23.000Z,0
2023-04-18T03:09:21.593Z,0
2023-04-18T03:10:37.786Z,0
2023-04-18T03:12:11.000Z,0
2023-04-18T03:13:10.172Z,0
2023-04-18T03:14:44.364Z,0
2023-04-18T03:16:00.000Z,0
2023-04-18T03:17:16.757Z,0
2023-04-18T03:18:13.960Z,0
2023-04-18T03:19:48.000Z,0
2023-04-18T03:21:04.000Z,0
2023-04-18T03:22:20.542Z,0
2023-04-18T03:23:18.733Z,0
2023-04-18T03:24:52.000Z,0
2023-04-18T03:25:51.120Z,0
2023-04-18T03:27:25.000Z,0
2023-04-18T03:28:23.506Z,0
2023-04-18T03:29:38.725Z,0
2023-04-18T03:31:12.935Z,0
2023-04-18T03:32:28.142Z,0
2023-04-18T03:33:44.000Z,0
2023-04-18T03:35:00.535Z,0
2023-04-18T03:35:58.718Z,4
2023-04-18T03:37:31.000Z,4
2023-04-18T03:38:48.000Z,0
2023-04-18T03:40:04.312Z,4
2023-04-18T03:41:20.505Z,4
2023-04-18T03:42:36.827Z,4
2023-04-18T03:43:53.019Z,4
2023-04-18T03:45:09.000Z,4
2023-04-18T03:46:25.000Z,8
2023-04-18T03:47:41.000Z,4
2023-04-18T03:48:39.792Z,8
2023-04-18T03:50:13.000Z,12
2023-04-18T03:51:12.179Z,12
2023-04-18T03:52:46.377Z,12
2023-04-18T03:54:02.567Z,16
2023-04-18T03:55:18.758Z,20
2023-04-18T03:56:16.951Z,20
2023-04-18T03:57:51.144Z,24
2023-04-18T03:59:07.337Z,32
2023-04-18T04:00:23.532Z,32
2023-04-18T04:01:20.750Z,36
2023-04-18T04:02:54.000Z,40
2023-04-18T04:03:53.136Z,48
2023-04-18T04:05:26.000Z,48
2023-04-18T04:06:42.559Z,52
2023-04-18T04:07:58.000Z,60
2023-04-18T04:08:56.935Z,68
2023-04-18T04:10:57.000Z,76
2023-04-18T04:11:47.000Z,84
2023-04-18T04:13:03.000Z,92
2023-04-18T04:14:01.708Z,96
2023-04-18T04:15:17.901Z,108
2023-04-18T04:16:51.110Z,116
2023-04-18T04:18:07.000Z,128
2023-04-18T04:19:23.497Z,140
2023-04-18T04:20:39.000Z,156
2023-04-18T04:21:55.890Z,168
2023-04-18T04:22:54.075Z,184
2023-04-18T04:24:28.000Z,200
2023-04-18T04:25:26.461Z,224
2023-04-18T04:26:42.654Z,244
2023-04-18T04:28:16.000Z,264
2023-04-18T04:29:33.057Z,292
2023-04-18T04:30:31.232Z,316
2023-04-18T04:32:04.459Z,348
2023-04-18T04:33:19.663Z,380
2023-04-18T04:34:35.853Z,412
2023-04-18T04:35:52.000Z,460
2023-04-18T04:37:08.239Z,496
2023-04-18T04:38:24.445Z,540
2023-04-18T04:39:22.625Z,588
2023-04-18T04:40:56.820Z,668
2023-04-18T04:42:13.026Z,732
2023-04-18T04:43:29.216Z,788
2023-04-18T04:44:45.402Z,860
2023-04-18T04:45:43.590Z,924
2023-04-18T04:46:59.783Z,984
2023-04-18T04:48:15.976Z,1056
2023-04-18T04:49:50.000Z,1136
2023-04-18T04:51:06.000Z,1204
2023-04-18T04:52:04.555Z,1272
2023-04-18T04:53:19.764Z,1332
2023-04-18T04:54:35.957Z,1396
2023-04-18T04:56:10.149Z,1452
2023-04-18T04:57:26.345Z,1512
2023-04-18T04:58:41.000Z,1584
2023-04-18T04:59:39.755Z,1656
2023-04-18T05:01:13.948Z,1716
2023-04-18T05:02:30.000Z,1784
2023-04-18T05:03:46.348Z,1852
2023-04-18T05:04:44.527Z,1916
2023-04-18T05:06:17.000Z,1968
2023-04-18T05:07:33.940Z,2028
2023-04-18T05:08:50.123Z,2084
2023-04-18T05:10:06.000Z,2132
2023-04-18T05:11:22.514Z,2168
2023-04-18T05:12:20.702Z,2188
2023-04-18T05:13:54.000Z,2180
2023-04-18T05:15:11.000Z,2220
2023-04-18T05:16:27.281Z,2152
2023-04-18T05:17:43.480Z,2268
2023-04-18T05:18:59.000Z,2236
2023-04-18T05:19:57.860Z,2448
2023-04-18T05:21:32.000Z,2512
2023-04-18T05:22:48.249Z,2548
2023-04-18T05:24:04.562Z,2576
2023-04-18T05:25:02.753Z,2576
2023-04-18T05:26:36.000Z,2556
2023-04-18T05:27:53.139Z,2444
2023-04-18T05:29:09.000Z,2424
2023-04-18T05:30:07.525Z,2388
2023-04-18T05:31:40.000Z,2332
2023-04-18T05:32:56.948Z,2372
2023-04-18T05:34:12.158Z,2428
2023-04-18T05:35:10.341Z,2604
2023-04-18T05:36:44.000Z,2852
2023-04-18T05:37:42.727Z,2952
2023-04-18T05:39:16.920Z,3020
2023-04-18T05:40:33.113Z,3024
2023-04-18T05:41:49.324Z,3008
2023-04-18T05:43:05.500Z,3032
2023-04-18T05:44:21.000Z,3060
2023-04-18T05:45:19.884Z,3052
2023-04-18T05:46:54.078Z,3068
2023-04-18T05:48:10.282Z,3124
2023-04-18T05:49:26.469Z,3176
2023-04-18T05:50:41.684Z,3208
2023-04-18T05:51:57.874Z,3240
2023-04-18T05:53:14.000Z,3216
2023-04-18T05:54:30.252Z,3240
2023-04-18T05:55:46.462Z,3280
2023-04-18T05:57:02.649Z,3344
2023-04-18T05:58:00.832Z,2948
2023-04-18T05:59:35.000Z,3184
2023-04-18T06:00:51.233Z,3376
2023-04-18T06:02:07.411Z,3188
2023-04-18T06:03:23.605Z,2916
2023-04-18T06:04:39.000Z,2768
2023-04-18T06:05:55.000Z,2776
2023-04-18T06:07:12.000Z,2912
2023-04-18T06:08:28.383Z,3248
2023-04-18T06:09:43.000Z,3176
2023-04-18T06:10:59.780Z,3156
2023-04-18T06:11:57.973Z,3388
2023-04-18T06:13:32.176Z,3132
2023-04-18T06:14:48.000Z,3180
2023-04-18T06:16:04.556Z,3044
2023-04-18T06:17:20.759Z,3028
2023-04-18T06:18:36.000Z,2984
2023-04-18T06:19:53.133Z,2964
2023-04-18T06:21:09.324Z,2936
2023-04-18T06:22:25.000Z,2900
2023-04-18T06:23:23.711Z,2880
2023-04-18T06:24:57.903Z,2872
2023-04-18T06:26:13.113Z,2840
2023-04-18T06:27:29.321Z,2748
2023-04-18T06:28:45.506Z,2676
2023-04-18T06:30:01.000Z,2644
2023-04-18T06:31:17.887Z,2676
2023-04-18T06:32:34.084Z,2672
2023-04-18T06:33:50.287Z,2620
2023-04-18T06:35:06.475Z,2592
2023-04-18T06:36:04.660Z,2536
2023-04-18T06:37:38.000Z,2576
2023-04-18T06:38:55.054Z,2576
2023-04-18T06:40:11.000Z,2576
2023-04-18T06:41:27.450Z,2620
2023-04-18T06:42:42.000Z,2604
2023-04-18T06:43:58.000Z,2600
2023-04-18T06:45:15.000Z,2620
2023-04-18T06:46:13.223Z,2700
2023-04-18T06:47:47.000Z,2720
2023-04-18T06:48:45.609Z,2792
2023-04-18T06:50:19.000Z,2824
2023-04-18T06:51:35.000Z,2820
2023-04-18T06:52:52.000Z,2844
2023-04-18T06:54:08.384Z,2808
2023-04-18T06:55:24.587Z,2764
2023-04-18T06:56:40.000Z,2712
2023-04-18T06:57:56.000Z,2712
2023-04-18T06:58:55.154Z,2776
2023-04-18T07:00:28.368Z,2812
2023-04-18T07:01:44.563Z,2864
2023-04-18T07:03:00.000Z,2896
2023-04-18T07:04:16.000Z,2936
2023-04-18T07:05:33.000Z,2984
2023-04-18T07:06:31.330Z,3056
2023-04-18T07:08:05.523Z,3148
2023-04-18T07:09:21.000Z,3244
2023-04-18T07:10:19.910Z,3396
2023-04-18T07:11:36.103Z,3616
2023-04-18T07:13:10.297Z,3852
2023-04-18T07:14:08.491Z,4176
2023-04-18T07:15:42.000Z,4204
2023-04-18T07:16:58.883Z,4428
2023-04-18T07:18:14.097Z,4964
2023-04-18T07:19:12.279Z,4952
2023-04-18T07:20:28.472Z,4596
2023-04-18T07:22:02.000Z,4648
2023-04-18T07:23:18.000Z,4640
2023-04-18T07:24:17.052Z,4604
2023-04-18T07:25:51.245Z,4456
2023-04-18T07:27:07.439Z,4652
2023-04-18T07:28:23.000Z,4816
2023-04-18T07:29:21.825Z,4960
2023-04-18T07:30:56.000Z,4928
2023-04-18T07:31:54.212Z,5020
2023-04-18T07:33:28.413Z,5088
2023-04-18T07:34:43.000Z,5160
2023-04-18T07:35:59.000Z,5148
2023-04-18T07:36:58.002Z,4972
2023-04-18T07:38:32.196Z,5136
2023-04-18T07:39:48.400Z,5140
2023-04-18T07:41:04.582Z,5196
2023-04-18T07:42:20.782Z,5284
2023-04-18T07:43:36.000Z,5284
2023-04-18T07:44:53.000Z,5304
2023-04-18T07:46:09.357Z,5244
2023-04-18T07:47:25.550Z,5244
2023-04-18T07:48:41.750Z,5412
2023-04-18T07:49:39.937Z,5328
2023-04-18T07:51:14.134Z,4544
2023-04-18T07:52:12.323Z,4348
2023-04-18T07:53:45.000Z,4332
2023-04-18T07:54:43.726Z,4392
2023-04-18T07:56:17.932Z,4436
2023-04-18T07:57:15.134Z,4352
2023-04-18T07:58:49.000Z,4244
2023-04-18T08:00:05.521Z,4120
2023-04-18T08:01:21.715Z,4024
2023-04-18T08:02:37.918Z,3968
2023-04-18T08:03:54.000Z,4068
2023-04-18T08:05:10.312Z,4144
2023-04-18T08:06:26.000Z,4160
2023-04-18T08:07:24.681Z,4164
2023-04-18T08:08:58.000Z,4092
2023-04-18T08:09:57.068Z,4068
2023-04-18T08:11:31.276Z,4052
2023-04-18T08:12:47.454Z,3928
2023-04-18T08:14:03.000Z,3784
2023-04-18T08:15:19.000Z,3608
2023-04-18T08:16:36.000Z,3440
2023-04-18T08:17:34.225Z,3240
2023-04-18T08:19:08.435Z,3092
2023-04-18T08:20:24.000Z,3012
2023-04-18T08:21:39.824Z,2960
2023-04-18T08:22:38.014Z,2984
2023-04-18T08:24:12.000Z,2960
2023-04-18T08:25:28.000Z,3004
2023-04-18T08:26:44.594Z,3072
2023-04-18T08:27:42.786Z,3076
2023-04-18T08:29:16.988Z,3008
2023-04-18T08:30:33.000Z,2908
2023-04-18T08:31:49.365Z,2788
2023-04-18T08:33:31.000Z,2716
2023-04-18T08:34:21.000Z,2752
2023-04-18T08:35:19.944Z,2804
2023-04-18T08:36:54.000Z,2888
2023-04-18T08:38:10.330Z,2940
2023-04-18T08:39:26.000Z,3000
2023-04-18T08:40:24.716Z,2928
2023-04-18T08:41:58.000Z,2944
2023-04-18T08:42:57.101Z,2996
2023-04-18T08:44:31.000Z,3024
2023-04-18T08:45:47.610Z,3088
2023-04-18T08:47:03.000Z,3184
2023-04-18T08:48:46.000Z,3244
2023-04-18T08:49:36.187Z,3272
2023-04-18T08:50:52.000Z,3388
2023-04-18T08:52:08.000Z,3516
2023-04-18T08:53:24.000Z,3636
2023-04-18T08:54:40.000Z,3740
2023-04-18T08:55:39.153Z,3716
2023-04-18T08:57:13.358Z,3604
2023-04-18T08:58:29.552Z,3524
2023-04-18T08:59:45.736Z,3444
2023-04-18T09:01:00.000Z,3500
2023-04-18T09:02:17.000Z,3356
2023-04-18T09:03:33.327Z,3316
2023-04-18T09:04:49.000Z,3296
2023-04-18T09:05:47.713Z,3284
2023-04-18T09:07:03.906Z,3284
2023-04-18T09:08:20.099Z,3384
2023-04-18T09:09:54.291Z,3568
2023-04-18T09:11:10.488Z,3908
2023-04-18T09:12:26.693Z,4256
2023-04-18T09:13:42.000Z,4824
2023-04-18T09:14:59.070Z,5184
2023-04-18T09:16:15.256Z,5476
2023-04-18T09:17:31.000Z,5644
2023-04-18T09:18:47.000Z,5776
2023-04-18T09:20:03.848Z,5900
2023-04-18T09:21:20.000Z,5948
2023-04-18T09:22:36.000Z,5848
2023-04-18T09:23:34.413Z,5684
2023-04-18T09:25:08.728Z,5812
2023-04-18T09:26:06.921Z,5908
2023-04-18T09:27:41.114Z,6108
2023-04-18T09:28:57.000Z,6360
2023-04-18T09:30:13.506Z,6540
2023-04-18T09:31:29.704Z,6840
2023-04-18T09:32:45.000Z,7068
2023-04-18T09:33:44.082Z,7172
2023-04-18T09:35:18.287Z,7208
2023-04-18T09:36:34.476Z,7156
2023-04-18T09:37:50.000Z,7112
2023-04-18T09:38:48.860Z,7104
2023-04-18T09:40:23.000Z,7064
2023-04-18T09:41:39.000Z,7120
2023-04-18T09:42:55.455Z,7204
2023-04-18T09:43:52.654Z,7228
2023-04-18T09:45:26.000Z,7124
2023-04-18T09:46:25.044Z,7220
2023-04-18T09:47:59.000Z,7224
2023-04-18T09:48:57.433Z,7008
2023-04-18T09:50:31.000Z,6956
2023-04-18T09:51:29.823Z,6880
2023-04-18T09:53:04.025Z,6820
2023-04-18T09:54:20.000Z,6792
2023-04-18T09:55:36.000Z,6708
2023-04-18T09:56:34.603Z,6648
2023-04-18T09:58:08.802Z,6588
2023-04-18T09:59:06.993Z,6604
2023-04-18T10:00:41.000Z,6660
2023-04-18T10:01:39.383Z,6692
2023-04-18T10:03:12.594Z,6652
2023-04-18T10:04:10.788Z,6596
2023-04-18T10:05:44.996Z,6584
2023-04-18T10:07:01.000Z,6552
2023-04-18T10:08:17.374Z,6508
2023-04-18T10:09:33.578Z,6468
2023-04-18T10:10:49.768Z,6508
2023-04-18T10:12:05.961Z,6492
2023-04-18T10:13:22.000Z,6472
2023-04-18T10:14:38.000Z,6468
2023-04-18T10:15:54.550Z,6484
2023-04-18T10:16:52.738Z,6528
2023-04-18T10:18:26.000Z,6556
2023-04-18T10:19:43.000Z,6576
2023-04-18T10:21:25.000Z,6596
2023-04-18T10:21:57.519Z,6664
2023-04-18T10:23:31.720Z,6796
2023-04-18T10:24:28.925Z,6828
2023-04-18T10:26:03.000Z,6864
2023-04-18T10:27:19.325Z,6928
2023-04-18T10:28:35.515Z,6892
2023-04-18T10:29:51.706Z,6968
2023-04-18T10:30:49.902Z,6888
2023-04-18T10:32:24.097Z,6948
2023-04-18T10:33:40.000Z,6904
2023-04-18T10:34:56.000Z,6884
2023-04-18T10:36:12.702Z,6876
2023-04-18T10:37:28.884Z,6836
2023-04-18T10:38:45.000Z,6812
2023-04-18T10:40:01.272Z,6828
2023-04-18T10:41:17.586Z,6840
2023-04-18T10:42:33.789Z,6844
2023-04-18T10:43:49.997Z,6848
2023-04-18T10:45:06.000Z,6744
2023-04-18T10:46:04.366Z,6616
2023-04-18T10:47:20.561Z,6520
2023-04-18T10:48:54.757Z,6384
2023-04-18T10:49:52.952Z,6208
2023-04-18T10:51:27.000Z,6148
2023-04-18T10:52:25.342Z,5944
2023-04-18T10:53:59.000Z,5824
2023-04-18T10:55:15.736Z,5800
2023-04-18T10:56:31.934Z,5828
2023-04-18T10:57:47.000Z,5940
2023-04-18T10:59:03.356Z,6096
2023-04-18T11:00:01.530Z,6092
2023-04-18T11:01:35.746Z,6012
2023-04-18T11:02:33.921Z,6004
2023-04-18T11:04:08.000Z,6064
2023-04-18T11:05:24.000Z,6100
2023-04-18T11:06:22.508Z,6084
2023-04-18T11:07:56.000Z,6044
2023-04-18T11:09:12.908Z,6124
2023-04-18T11:10:29.000Z,6200
2023-04-18T11:11:45.000Z,6360
2023-04-18T11:12:43.484Z,6472
2023-04-18T11:14:17.697Z,6836
2023-04-18T11:15:15.875Z,6644
2023-04-18T11:16:32.071Z,6664
2023-04-18T11:17:48.266Z,6644
2023-04-18T11:19:21.000Z,6640
2023-04-18T11:20:19.671Z,6620
2023-04-18T11:21:53.875Z,6588
2023-04-18T11:23:10.062Z,6568
2023-04-18T11:24:26.258Z,6600
2023-04-18T11:25:42.456Z,6636
2023-04-18T11:26:58.000Z,6656
2023-04-18T11:27:56.844Z,6524
2023-04-18T11:29:31.045Z,6500
2023-04-18T11:30:47.000Z,6520
2023-04-18T11:32:03.000Z,6572
2023-04-18T11:33:19.000Z,6588
2023-04-18T11:34:35.000Z,6488
2023-04-18T11:35:52.000Z,6412
2023-04-18T11:37:08.000Z,6428
2023-04-18T11:38:06.406Z,6604
2023-04-18T11:39:39.000Z,6532
2023-04-18T11:40:55.000Z,6512
2023-04-18T11:42:12.000Z,6492
2023-04-18T11:43:28.000Z,6476
2023-04-18T11:44:26.399Z,6444
2023-04-18T11:46:00.000Z,6412
2023-04-18T11:47:16.790Z,6400
2023-04-18T11:48:32.000Z,6352
2023-04-18T11:49:49.181Z,6280
2023-04-18T11:51:05.000Z,6228
2023-04-18T11:52:03.571Z,6184
2023-04-18T11:53:37.773Z,6112
2023-04-18T11:54:53.967Z,5988
2023-04-18T11:55:51.173Z,5992
2023-04-18T11:57:25.000Z,5912
2023-04-18T11:58:23.564Z,5872
2023-04-18T11:59:57.766Z,5912
2023-04-18T12:01:13.000Z,5872
2023-04-18T12:02:56.000Z,6004
2023-04-18T12:03:46.000Z,5856
2023-04-18T12:05:02.000Z,5832
2023-04-18T12:06:00.736Z,5764
2023-04-18T12:07:16.932Z,5636
2023-04-18T12:08:33.127Z,5544
2023-04-18T12:10:07.339Z,5484
2023-04-18T12:11:05.518Z,5428
2023-04-18T12:12:38.000Z,5328
2023-04-18T12:13:54.000Z,5328
2023-04-18T12:15:11.000Z,5436
2023-04-18T12:16:27.320Z,5536
2023-04-18T12:17:25.516Z,5628
2023-04-18T12:18:41.711Z,5632
2023-04-18T12:20:15.000Z,5636
2023-04-18T12:21:32.000Z,5752
2023-04-18T12:22:48.313Z,5656
2023-04-18T12:23:46.491Z,5596
2023-04-18T12:25:02.687Z,5556
2023-04-18T12:26:36.000Z,5544
2023-04-18T12:27:53.000Z,5472
2023-04-18T12:29:09.000Z,5360
2023-04-18T12:30:25.467Z,5284
2023-04-18T12:31:23.662Z,5296
2023-04-18T12:32:57.877Z,5268
2023-04-18T12:34:13.000Z,5216
2023-04-18T12:35:29.000Z,5164
2023-04-18T12:36:27.458Z,5028
2023-04-18T12:38:01.000Z,4892
2023-04-18T12:39:17.849Z,4924
2023-04-18T12:40:34.000Z,4616
2023-04-18T12:41:32.239Z,4476
2023-04-18T12:43:06.000Z,4628
2023-04-18T12:44:04.630Z,4464
2023-04-18T12:45:38.000Z,4332
2023-04-18T12:46:55.025Z,4284
2023-04-18T12:48:37.000Z,4304
2023-04-18T12:49:27.000Z,4276
2023-04-18T12:50:43.606Z,4176
2023-04-18T12:51:59.000Z,4168
2023-04-18T12:53:16.012Z,4196
2023-04-18T12:54:13.207Z,4196
2023-04-18T12:55:47.412Z,4232
2023-04-18T12:56:45.597Z,4252
2023-04-18T12:58:19.000Z,4216
2023-04-18T12:59:36.000Z,4192
2023-04-18T13:00:52.203Z,4096
2023-04-18T13:01:50.378Z,4024
2023-04-18T13:03:24.588Z,3848
2023-04-18T13:04:40.000Z,3676
2023-04-18T13:05:56.000Z,3612
2023-04-18T13:07:13.177Z,3592
2023-04-18T13:08:29.361Z,3436
2023-04-18T13:09:27.548Z,3432
2023-04-18T13:11:01.764Z,3516
2023-04-18T13:12:17.000Z,3464
2023-04-18T13:13:34.134Z,3444
2023-04-18T13:14:32.329Z,3620
2023-04-18T13:15:47.540Z,3804
2023-04-18T13:17:21.000Z,3840
2023-04-18T13:18:37.943Z,3856
2023-04-18T13:19:54.000Z,3840
2023-04-18T13:21:10.323Z,3800
2023-04-18T13:22:26.518Z,3620
2023-04-18T13:23:42.721Z,3432
2023-04-18T13:24:58.912Z,3276
2023-04-18T13:26:15.100Z,3180
2023-04-18T13:27:13.294Z,3208
2023-04-18T13:28:47.000Z,3212
2023-04-18T13:30:03.685Z,3148
2023-04-18T13:31:19.887Z,2992
2023-04-18T13:32:35.000Z,2840
2023-04-18T13:33:33.286Z,2756
2023-04-18T13:34:49.480Z,2868
2023-04-18T13:36:23.000Z,2972
2023-04-18T13:37:39.878Z,3084
2023-04-18T13:38:56.000Z,3172
2023-04-18T13:39:54.260Z,3196
2023-04-18T13:41:28.469Z,3164
2023-04-18T13:42:44.000Z,3096
2023-04-18T13:44:00.000Z,3004
2023-04-18T13:44:59.039Z,3000
2023-04-18T13:46:33.000Z,2992
2023-04-18T13:47:31.429Z,3064
2023-04-18T13:49:05.000Z,3144
2023-04-18T13:50:21.000Z,3324
2023-04-18T13:51:38.000Z,3344
2023-04-18T13:52:54.208Z,3364
2023-04-18T13:54:10.406Z,3436
2023-04-18T13:55:25.000Z,3488
2023-04-18T13:56:41.000Z,3496
2023-04-18T13:57:58.000Z,3500
2023-04-18T13:59:14.000Z,3492
2023-04-18T14:00:12.395Z,3496
2023-04-18T14:01:46.598Z,3500
2023-04-18T14:02:44.784Z,3528
2023-04-18T14:04:00.979Z,3628
2023-04-18T14:05:17.174Z,3612
2023-04-18T14:06:51.000Z,3608
2023-04-18T14:08:07.000Z,3608
2023-04-18T14:09:23.760Z,3656
2023-04-18T14:10:21.954Z,3624
2023-04-18T14:11:56.278Z,3604
2023-04-18T14:12:54.466Z,3584
2023-04-18T14:14:28.000Z,3572
2023-04-18T14:15:26.856Z,3588
2023-04-18T14:16:43.051Z,3592
2023-04-18T14:18:17.246Z,3608
2023-04-18T14:19:33.451Z,3628
2023-04-18T14:20:49.000Z,3648
2023-04-18T14:22:05.000Z,3664
2023-04-18T14:23:22.030Z,3664
2023-04-18T14:24:38.230Z,3656
2023-04-18T14:25:36.415Z,3612
2023-04-18T14:27:10.000Z,3596
2023-04-18T14:28:26.000Z,3576
2023-04-18T14:29:43.018Z,3596
2023-04-18T14:30:41.316Z,3536
2023-04-18T14:32:15.000Z,3512
2023-04-18T14:33:31.705Z,3456
2023-04-18T14:34:47.904Z,3404
2023-04-18T14:36:04.101Z,3268
2023-04-18T14:37:20.290Z,3148
2023-04-18T14:38:18.484Z,3044
2023-04-18T14:39:52.680Z,2872
2023-04-18T14:41:08.879Z,2748
2023-04-18T14:42:07.070Z,2700
2023-04-18T14:43:41.000Z,2648
2023-04-18T14:44:57.000Z,2600
2023-04-18T14:46:13.000Z,2596
2023-04-18T14:47:29.872Z,2556
2023-04-18T14:48:28.045Z,2504
2023-04-18T14:50:02.000Z,2488
2023-04-18T14:51:18.459Z,2536
2023-04-18T14:52:33.656Z,2540
2023-04-18T14:53:49.000Z,2560
2023-04-18T14:55:06.000Z,2528
2023-04-18T14:56:22.243Z,2400
2023-04-18T14:57:38.445Z,2316
2023-04-18T14:58:54.000Z,2260
2023-04-18T15:00:10.000Z,2216
2023-04-18T15:01:09.013Z,2192
2023-04-18T15:02:43.000Z,2116
2023-04-18T15:03:41.402Z,1976
2023-04-18T15:05:15.611Z,1868
2023-04-18T15:06:13.792Z,1856
2023-04-18T15:07:47.987Z,1888
2023-04-18T15:08:46.182Z,1916
2023-04-18T15:10:19.411Z,1912
2023-04-18T15:11:35.590Z,1900
2023-04-18T15:12:51.000Z,1916
2023-04-18T15:14:07.981Z,1932
2023-04-18T15:15:24.000Z,1964
2023-04-18T15:16:22.372Z,2000
2023-04-18T15:17:56.582Z,2012
2023-04-18T15:18:54.763Z,2008
2023-04-18T15:20:28.000Z,1988
2023-04-18T15:21:45.000Z,1952
2023-04-18T15:23:01.000Z,1916
2023-04-18T15:24:17.546Z,1892
2023-04-18T15:25:33.758Z,1856
2023-04-18T15:26:31.937Z,1828
2023-04-18T15:28:06.152Z,1804
2023-04-18T15:29:04.449Z,1784
2023-04-18T15:30:38.000Z,1768
2023-04-18T15:31:36.839Z,1748
2023-04-18T15:33:11.000Z,1724
2023-04-18T15:34:09.229Z,1712
2023-04-18T15:35:43.000Z,1700
2023-04-18T15:36:59.000Z,1692
2023-04-18T15:38:15.816Z,1704
2023-04-18T15:39:14.010Z,1652
2023-04-18T15:40:48.223Z,1632
2023-04-18T15:42:04.406Z,1620
2023-04-18T15:43:20.604Z,1600
2023-04-18T15:44:36.793Z,1584
2023-04-18T15:45:52.988Z,1576
2023-04-18T15:46:51.183Z,1572
2023-04-18T15:48:24.409Z,1576
2023-04-18T15:49:40.590Z,1572
2023-04-18T15:50:38.785Z,1572
2023-04-18T15:52:12.997Z,1560
2023-04-18T15:53:29.000Z,1552
2023-04-18T15:54:45.383Z,1524
2023-04-18T15:56:01.567Z,1504
2023-04-18T15:57:17.767Z,1492
2023-04-18T15:58:33.000Z,1468
2023-04-18T15:59:50.000Z,1448
2023-04-18T16:01:06.000Z,1432
2023-04-18T16:02:22.542Z,1420
2023-04-18T16:03:20.737Z,1404
2023-04-18T16:04:36.932Z,1384
2023-04-18T16:06:10.149Z,1356
2023-04-18T16:07:08.340Z,1340
2023-04-18T16:08:42.536Z,1292
2023-04-18T16:09:58.743Z,1264
2023-04-18T16:11:14.933Z,1236
2023-04-18T16:12:13.122Z,1204
2023-04-18T16:13:47.329Z,1180
2023-04-18T16:15:03.000Z,1156
2023-04-18T16:16:19.708Z,1124
2023-04-18T16:17:35.920Z,1092
2023-04-18T16:18:52.098Z,1056
2023-04-18T16:19:50.293Z,1020
2023-04-18T16:21:06.489Z,992
2023-04-18T16:22:22.684Z,972
2023-04-18T16:23:55.896Z,944
2023-04-18T16:24:54.092Z,924
2023-04-18T16:26:28.305Z,912
2023-04-18T16:27:43.000Z,888
2023-04-18T16:28:59.711Z,876
2023-04-18T16:30:15.898Z,864
2023-04-18T16:31:32.000Z,856
2023-04-18T16:32:30.286Z,840
2023-04-18T16:34:04.490Z,828
2023-04-18T16:35:20.683Z,820
2023-04-18T16:36:18.872Z,812
2023-04-18T16:37:35.068Z,808
2023-04-18T16:39:09.000Z,800
2023-04-18T16:40:25.460Z,796
2023-04-18T16:41:41.670Z,796
2023-04-18T16:42:39.851Z,800
2023-04-18T16:44:14.069Z,800
2023-04-18T16:45:12.363Z,804
2023-04-18T16:46:46.000Z,808
2023-04-18T16:48:02.000Z,800
2023-04-18T16:49:18.964Z,784
2023-04-18T16:50:17.145Z,772
2023-04-18T16:51:51.360Z,756
2023-04-18T16:53:07.536Z,740
2023-04-18T16:54:23.732Z,720
2023-04-18T16:55:21.927Z,704
2023-04-18T16:56:56.123Z,692
2023-04-18T16:57:54.317Z,684
2023-04-18T16:59:10.513Z,680
2023-04-18T17:00:26.708Z,672
2023-04-18T17:02:00.000Z,668
2023-04-18T17:02:59.099Z,664
2023-04-18T17:04:33.316Z,664
2023-04-18T17:05:48.506Z,668
2023-04-18T17:07:04.702Z,656
2023-04-18T17:08:02.897Z,644
2023-04-18T17:09:37.000Z,640
2023-04-18T17:10:35.289Z,628
2023-04-18T17:12:09.492Z,620
2023-04-18T17:13:25.692Z,604
2023-04-18T17:14:41.000Z,588
2023-04-18T17:15:58.000Z,564
2023-04-18T17:17:14.267Z,536
2023-04-18T17:18:30.463Z,508
2023-04-18T17:19:46.000Z,480
2023-04-18T17:21:02.863Z,452